sensor_id;sensor_type;location;lat;lon;timestamp;pressure;altitude;pressure_sealevel;temperature;humidity
11985;BME280;6052;53.246;10.368;2023-03-16T00:01:18;101545.63;;;4.62;88.66
11985;BME280;6052;53.246;10.368;2023-03-16T00:03:47;101547.31;;;4.55;88.72
11985;BME280;6052;53.246;10.368;2023-03-16T00:06:16;101550.44;;;4.58;89.06
11985;BME280;6052;53.246;10.368;2023-03-16T00:08:46;101536.97;;;4.60;88.74
11985;BME280;6052;53.246;10.368;2023-03-16T00:11:15;101548.63;;;4.59;88.94
11985;BME280;6052;53.246;10.368;2023-03-16T00:13:44;101545.13;;;4.58;88.76
11985;BME280;6052;53.246;10.368;2023-03-16T00:16:13;101552.63;;;4.55;88.61
11985;BME280;6052;53.246;10.368;2023-03-16T00:18:45;101554.28;;;4.56;88.79
11985;BME280;6052;53.246;10.368;2023-03-16T00:21:15;101548.50;;;4.52;88.75
11985;BME280;6052;53.246;10.368;2023-03-16T00:23:44;101556.47;;;4.52;88.75
11985;BME280;6052;53.246;10.368;2023-03-16T00:26:13;101557.47;;;4.51;88.57
11985;BME280;6052;53.246;10.368;2023-03-16T00:28:42;101561.06;;;4.58;88.81
11985;BME280;6052;53.246;10.368;2023-03-16T00:31:12;101562.78;;;4.51;88.79
11985;BME280;6052;53.246;10.368;2023-03-16T00:33:41;101557.94;;;4.55;88.57
11985;BME280;6052;53.246;10.368;2023-03-16T00:36:13;101558.50;;;4.50;88.58
11985;BME280;6052;53.246;10.368;2023-03-16T00:38:43;101560.47;;;4.48;88.78
11985;BME280;6052;53.246;10.368;2023-03-16T00:41:14;101555.38;;;4.47;88.35
11985;BME280;6052;53.246;10.368;2023-03-16T00:43:44;101552.41;;;4.42;88.75
11985;BME280;6052;53.246;10.368;2023-03-16T00:46:15;101549.75;;;4.42;88.65
11985;BME280;6052;53.246;10.368;2023-03-16T00:48:46;101550.22;;;4.45;88.55
11985;BME280;6052;53.246;10.368;2023-03-16T00:51:18;101557.53;;;4.43;88.59
11985;BME280;6052;53.246;10.368;2023-03-16T00:53:48;101561.66;;;4.46;88.23
11985;BME280;6052;53.246;10.368;2023-03-16T00:56:17;101555.88;;;4.42;88.28
11985;BME280;6052;53.246;10.368;2023-03-16T00:58:47;101553.38;;;4.41;88.09
11985;BME280;6052;53.246;10.368;2023-03-16T01:01:18;101560.00;;;4.45;88.55
11985;BME280;6052;53.246;10.368;2023-03-16T01:03:48;101558.50;;;4.20;88.13
11985;BME280;6052;53.246;10.368;2023-03-16T01:06:20;101553.84;;;4.22;88.80
11985;BME280;6052;53.246;10.368;2023-03-16T01:08:49;101560.63;;;4.24;88.99
11985;BME280;6052;53.246;10.368;2023-03-16T01:11:20;101559.50;;;4.19;89.00
11985;BME280;6052;53.246;10.368;2023-03-16T01:13:50;101552.59;;;4.10;89.01
11985;BME280;6052;53.246;10.368;2023-03-16T01:16:20;101547.09;;;4.11;89.07
11985;BME280;6052;53.246;10.368;2023-03-16T01:18:50;101551.34;;;3.98;89.42
11985;BME280;6052;53.246;10.368;2023-03-16T01:21:23;101548.22;;;4.17;88.94
11985;BME280;6052;53.246;10.368;2023-03-16T01:23:52;101541.63;;;4.13;88.74
11985;BME280;6052;53.246;10.368;2023-03-16T01:26:22;101542.81;;;4.10;88.36
11985;BME280;6052;53.246;10.368;2023-03-16T01:28:51;101540.63;;;4.14;88.56
11985;BME280;6052;53.246;10.368;2023-03-16T01:31:20;101543.66;;;4.03;88.70
11985;BME280;6052;53.246;10.368;2023-03-16T01:33:50;101541.41;;;4.14;88.90
11985;BME280;6052;53.246;10.368;2023-03-16T01:36:20;101539.13;;;4.11;88.42
11985;BME280;6052;53.246;10.368;2023-03-16T01:38:51;101535.50;;;4.04;88.35
11985;BME280;6052;53.246;10.368;2023-03-16T01:41:21;101523.38;;;4.10;88.53
11985;BME280;6052;53.246;10.368;2023-03-16T01:43:51;101526.91;;;4.02;88.57
11985;BME280;6052;53.246;10.368;2023-03-16T01:46:25;101526.19;;;4.08;88.43
11985;BME280;6052;53.246;10.368;2023-03-16T01:49:00;101521.25;;;4.05;88.03
11985;BME280;6052;53.246;10.368;2023-03-16T01:51:35;101528.69;;;4.10;88.04
11985;BME280;6052;53.246;10.368;2023-03-16T01:54:15;101523.06;;;4.05;88.14
11985;BME280;6052;53.246;10.368;2023-03-16T01:56:51;101522.06;;;4.06;88.00
11985;BME280;6052;53.246;10.368;2023-03-16T01:59:25;101526.56;;;4.05;87.98
11985;BME280;6052;53.246;10.368;2023-03-16T02:01:55;101522.72;;;4.08;87.79
11985;BME280;6052;53.246;10.368;2023-03-16T02:04:33;101524.25;;;4.02;87.84
11985;BME280;6052;53.246;10.368;2023-03-16T02:07:05;101525.72;;;4.05;87.83
11985;BME280;6052;53.246;10.368;2023-03-16T02:09:41;101529.38;;;4.04;87.91
11985;BME280;6052;53.246;10.368;2023-03-16T02:12:13;101526.91;;;4.02;87.92
11985;BME280;6052;53.246;10.368;2023-03-16T02:14:45;101522.75;;;4.00;87.94
11985;BME280;6052;53.246;10.368;2023-03-16T02:17:17;101528.41;;;3.97;88.01
11985;BME280;6052;53.246;10.368;2023-03-16T02:19:54;101531.06;;;3.97;87.63
11985;BME280;6052;53.246;10.368;2023-03-16T02:22:25;101521.44;;;3.96;87.58
11985;BME280;6052;53.246;10.368;2023-03-16T02:25:04;101523.47;;;3.94;87.62
11985;BME280;6052;53.246;10.368;2023-03-16T02:27:39;101522.63;;;3.93;87.90
11985;BME280;6052;53.246;10.368;2023-03-16T02:30:14;101520.97;;;3.92;87.93
11985;BME280;6052;53.246;10.368;2023-03-16T02:32:45;101520.38;;;3.82;88.11
11985;BME280;6052;53.246;10.368;2023-03-16T02:35:17;101517.72;;;3.74;88.36
11985;BME280;6052;53.246;10.368;2023-03-16T02:37:46;101507.97;;;3.67;88.24
11985;BME280;6052;53.246;10.368;2023-03-16T02:40:23;101513.97;;;3.69;88.25
11985;BME280;6052;53.246;10.368;2023-03-16T02:42:55;101511.09;;;3.70;88.32
11985;BME280;6052;53.246;10.368;2023-03-16T02:45:33;101512.41;;;3.74;88.02
11985;BME280;6052;53.246;10.368;2023-03-16T02:48:09;101506.78;;;3.77;87.86
11985;BME280;6052;53.246;10.368;2023-03-16T02:50:45;101508.75;;;3.75;87.73
11985;BME280;6052;53.246;10.368;2023-03-16T02:53:15;101513.28;;;3.67;87.88
11985;BME280;6052;53.246;10.368;2023-03-16T02:55:45;101507.34;;;3.65;88.07
11985;BME280;6052;53.246;10.368;2023-03-16T02:58:15;101507.19;;;3.58;87.73
11985;BME280;6052;53.246;10.368;2023-03-16T03:00:47;101508.66;;;3.69;88.06
11985;BME280;6052;53.246;10.368;2023-03-16T03:03:16;101514.97;;;3.60;87.72
11985;BME280;6052;53.246;10.368;2023-03-16T03:05:45;101512.97;;;3.62;87.60
11985;BME280;6052;53.246;10.368;2023-03-16T03:08:15;101509.06;;;3.50;88.18
11985;BME280;6052;53.246;10.368;2023-03-16T03:10:45;101518.03;;;3.33;88.12
11985;BME280;6052;53.246;10.368;2023-03-16T03:13:15;101518.66;;;3.59;87.97
11985;BME280;6052;53.246;10.368;2023-03-16T03:15:47;101517.19;;;3.48;88.02
11985;BME280;6052;53.246;10.368;2023-03-16T03:18:16;101517.66;;;3.52;88.40
11985;BME280;6052;53.246;10.368;2023-03-16T03:20:45;101515.66;;;3.54;87.80
11985;BME280;6052;53.246;10.368;2023-03-16T03:23:14;101515.78;;;3.60;87.55
11985;BME280;6052;53.246;10.368;2023-03-16T03:25:44;101518.75;;;3.65;87.32
11985;BME280;6052;53.246;10.368;2023-03-16T03:28:14;101517.81;;;3.50;87.40
11985;BME280;6052;53.246;10.368;2023-03-16T03:30:43;101527.94;;;3.55;87.43
11985;BME280;6052;53.246;10.368;2023-03-16T03:33:15;101518.69;;;3.43;87.63
11985;BME280;6052;53.246;10.368;2023-03-16T03:35:44;101526.31;;;3.46;87.48
11985;BME280;6052;53.246;10.368;2023-03-16T03:38:13;101522.34;;;3.34;88.15
11985;BME280;6052;53.246;10.368;2023-03-16T03:40:42;101521.84;;;3.38;88.10
11985;BME280;6052;53.246;10.368;2023-03-16T03:43:12;101527.97;;;3.47;88.04
11985;BME280;6052;53.246;10.368;2023-03-16T03:45:41;101514.38;;;3.34;88.03
11985;BME280;6052;53.246;10.368;2023-03-16T03:48:10;101523.97;;;3.43;87.89
11985;BME280;6052;53.246;10.368;2023-03-16T03:50:42;101519.84;;;3.40;87.85
11985;BME280;6052;53.246;10.368;2023-03-16T03:53:11;101522.38;;;3.26;88.23
11985;BME280;6052;53.246;10.368;2023-03-16T03:55:40;101523.38;;;3.25;88.36
11985;BME280;6052;53.246;10.368;2023-03-16T03:58:10;101524.41;;;3.16;88.43
11985;BME280;6052;53.246;10.368;2023-03-16T04:00:40;101537.63;;;3.24;88.79
11985;BME280;6052;53.246;10.368;2023-03-16T04:03:09;101529.53;;;3.17;88.57
11985;BME280;6052;53.246;10.368;2023-03-16T04:05:42;101526.22;;;3.15;88.60
11985;BME280;6052;53.246;10.368;2023-03-16T04:08:11;101529.69;;;3.08;88.84
11985;BME280;6052;53.246;10.368;2023-03-16T04:10:40;101532.03;;;3.11;88.73
11985;BME280;6052;53.246;10.368;2023-03-16T04:13:10;101538.81;;;3.05;88.77
11985;BME280;6052;53.246;10.368;2023-03-16T04:15:39;101532.03;;;3.03;89.31
11985;BME280;6052;53.246;10.368;2023-03-16T04:18:12;101531.88;;;3.04;89.23
11985;BME280;6052;53.246;10.368;2023-03-16T04:20:44;101522.25;;;3.03;89.51
11985;BME280;6052;53.246;10.368;2023-03-16T04:23:14;101527.69;;;3.10;89.67
11985;BME280;6052;53.246;10.368;2023-03-16T04:25:43;101533.69;;;3.04;89.92
11985;BME280;6052;53.246;10.368;2023-03-16T04:28:13;101531.53;;;2.99;90.61
11985;BME280;6052;53.246;10.368;2023-03-16T04:30:43;101530.53;;;3.00;90.87
11985;BME280;6052;53.246;10.368;2023-03-16T04:33:12;101527.72;;;2.94;92.14
11985;BME280;6052;53.246;10.368;2023-03-16T04:35:45;101527.88;;;2.92;92.13
11985;BME280;6052;53.246;10.368;2023-03-16T04:38:14;101524.09;;;2.87;92.38
11985;BME280;6052;53.246;10.368;2023-03-16T04:40:44;101522.59;;;2.92;92.45
11985;BME280;6052;53.246;10.368;2023-03-16T04:43:13;101525.75;;;2.80;93.38
11985;BME280;6052;53.246;10.368;2023-03-16T04:45:42;101522.13;;;2.73;94.04
11985;BME280;6052;53.246;10.368;2023-03-16T04:48:12;101528.25;;;2.65;94.36
11985;BME280;6052;53.246;10.368;2023-03-16T04:50:41;101516.97;;;2.71;94.51
11985;BME280;6052;53.246;10.368;2023-03-16T04:53:13;101525.78;;;2.72;95.09
11985;BME280;6052;53.246;10.368;2023-03-16T04:55:43;101527.09;;;2.52;96.14
11985;BME280;6052;53.246;10.368;2023-03-16T04:58:12;101532.53;;;2.50;96.72
11985;BME280;6052;53.246;10.368;2023-03-16T05:00:41;101535.97;;;2.19;98.06
11985;BME280;6052;53.246;10.368;2023-03-16T05:03:11;101532.16;;;2.21;98.78
11985;BME280;6052;53.246;10.368;2023-03-16T05:05:40;101535.34;;;2.33;99.07
11985;BME280;6052;53.246;10.368;2023-03-16T05:08:13;101532.88;;;2.47;98.66
11985;BME280;6052;53.246;10.368;2023-03-16T05:10:42;101530.06;;;2.57;97.74
11985;BME280;6052;53.246;10.368;2023-03-16T05:13:13;101525.75;;;2.64;96.72
11985;BME280;6052;53.246;10.368;2023-03-16T05:15:43;101528.25;;;2.49;97.30
11985;BME280;6052;53.246;10.368;2023-03-16T05:18:12;101523.91;;;2.32;97.89
11985;BME280;6052;53.246;10.368;2023-03-16T05:20:41;101525.72;;;2.32;98.23
11985;BME280;6052;53.246;10.368;2023-03-16T05:23:13;101527.38;;;2.25;98.57
11985;BME280;6052;53.246;10.368;2023-03-16T05:25:42;101520.75;;;2.29;98.49
11985;BME280;6052;53.246;10.368;2023-03-16T05:28:12;101511.16;;;2.20;98.72
11985;BME280;6052;53.246;10.368;2023-03-16T05:30:42;101514.13;;;2.25;98.52
11985;BME280;6052;53.246;10.368;2023-03-16T05:33:12;101513.63;;;2.05;99.18
11985;BME280;6052;53.246;10.368;2023-03-16T05:35:41;101520.09;;;2.19;99.63
11985;BME280;6052;53.246;10.368;2023-03-16T05:38:13;101518.63;;;2.40;98.27
11985;BME280;6052;53.246;10.368;2023-03-16T05:40:43;101519.28;;;2.42;97.66
11985;BME280;6052;53.246;10.368;2023-03-16T05:43:18;101537.50;;;2.53;96.97
11985;BME280;6052;53.246;10.368;2023-03-16T05:45:48;101523.72;;;2.26;97.53
11985;BME280;6052;53.246;10.368;2023-03-16T05:48:18;101525.56;;;2.25;98.76
11985;BME280;6052;53.246;10.368;2023-03-16T05:50:49;101523.22;;;2.22;99.36
11985;BME280;6052;53.246;10.368;2023-03-16T05:53:21;101527.22;;;2.26;99.39
11985;BME280;6052;53.246;10.368;2023-03-16T05:55:54;101532.97;;;2.14;99.90
11985;BME280;6052;53.246;10.368;2023-03-16T05:58:23;101531.88;;;2.40;99.71
11985;BME280;6052;53.246;10.368;2023-03-16T06:00:52;101531.22;;;2.46;98.98
11985;BME280;6052;53.246;10.368;2023-03-16T06:03:22;101531.72;;;2.50;98.34
11985;BME280;6052;53.246;10.368;2023-03-16T06:05:51;101543.47;;;2.55;98.28
11985;BME280;6052;53.246;10.368;2023-03-16T06:08:23;101539.50;;;2.59;98.12
11985;BME280;6052;53.246;10.368;2023-03-16T06:10:52;101546.94;;;2.40;98.79
11985;BME280;6052;53.246;10.368;2023-03-16T06:13:22;101540.81;;;2.47;99.35
11985;BME280;6052;53.246;10.368;2023-03-16T06:15:51;101545.06;;;2.24;99.83
11985;BME280;6052;53.246;10.368;2023-03-16T06:18:20;101543.78;;;2.36;100.00
11985;BME280;6052;53.246;10.368;2023-03-16T06:20:49;101541.47;;;2.41;100.00
11985;BME280;6052;53.246;10.368;2023-03-16T06:23:18;101546.56;;;2.27;100.00
11985;BME280;6052;53.246;10.368;2023-03-16T06:25:51;101551.91;;;2.43;100.00
11985;BME280;6052;53.246;10.368;2023-03-16T06:28:21;101549.91;;;2.37;100.00
11985;BME280;6052;53.246;10.368;2023-03-16T06:30:52;101549.56;;;2.24;100.00
11985;BME280;6052;53.246;10.368;2023-03-16T06:33:22;101546.22;;;2.22;100.00
11985;BME280;6052;53.246;10.368;2023-03-16T06:35:53;101546.41;;;2.28;100.00
11985;BME280;6052;53.246;10.368;2023-03-16T06:38:23;101550.22;;;2.34;100.00
11985;BME280;6052;53.246;10.368;2023-03-16T06:40:55;101554.16;;;2.14;100.00
11985;BME280;6052;53.246;10.368;2023-03-16T06:43:24;101553.81;;;2.17;100.00
11985;BME280;6052;53.246;10.368;2023-03-16T06:45:53;101558.31;;;2.16;100.00
11985;BME280;6052;53.246;10.368;2023-03-16T06:48:24;101558.16;;;2.26;100.00
11985;BME280;6052;53.246;10.368;2023-03-16T06:50:53;101563.81;;;2.39;100.00
11985;BME280;6052;53.246;10.368;2023-03-16T06:53:22;101562.44;;;2.27;100.00
11985;BME280;6052;53.246;10.368;2023-03-16T06:55:52;101564.19;;;2.52;100.00
11985;BME280;6052;53.246;10.368;2023-03-16T06:58:23;101569.28;;;2.45;100.00
11985;BME280;6052;53.246;10.368;2023-03-16T07:00:53;101576.06;;;2.40;100.00
11985;BME280;6052;53.246;10.368;2023-03-16T07:03:22;101575.72;;;2.35;100.00
11985;BME280;6052;53.246;10.368;2023-03-16T07:05:51;101573.69;;;2.13;100.00
11985;BME280;6052;53.246;10.368;2023-03-16T07:08:20;101569.06;;;2.15;100.00
11985;BME280;6052;53.246;10.368;2023-03-16T07:10:50;101573.97;;;2.02;100.00
11985;BME280;6052;53.246;10.368;2023-03-16T07:13:20;101579.00;;;2.13;100.00
11985;BME280;6052;53.246;10.368;2023-03-16T07:15:52;101581.47;;;2.22;100.00
11985;BME280;6052;53.246;10.368;2023-03-16T07:18:21;101586.16;;;2.36;100.00
11985;BME280;6052;53.246;10.368;2023-03-16T07:20:51;101592.03;;;2.14;100.00
11985;BME280;6052;53.246;10.368;2023-03-16T07:23:21;101595.22;;;2.18;100.00
11985;BME280;6052;53.246;10.368;2023-03-16T07:25:50;101594.53;;;2.08;100.00
11985;BME280;6052;53.246;10.368;2023-03-16T07:28:20;101597.88;;;2.26;100.00
11985;BME280;6052;53.246;10.368;2023-03-16T07:30:52;101602.50;;;2.32;100.00
11985;BME280;6052;53.246;10.368;2023-03-16T07:33:29;101603.03;;;2.35;100.00
11985;BME280;6052;53.246;10.368;2023-03-16T07:35:59;101603.69;;;2.37;100.00
11985;BME280;6052;53.246;10.368;2023-03-16T07:38:30;101604.72;;;2.52;100.00
11985;BME280;6052;53.246;10.368;2023-03-16T07:40:59;101607.22;;;2.54;100.00
11985;BME280;6052;53.246;10.368;2023-03-16T07:43:29;101614.53;;;2.68;100.00
11985;BME280;6052;53.246;10.368;2023-03-16T07:46:01;101605.06;;;2.73;100.00
11985;BME280;6052;53.246;10.368;2023-03-16T07:48:31;101606.75;;;2.66;100.00
11985;BME280;6052;53.246;10.368;2023-03-16T07:51:01;101606.75;;;2.74;100.00
11985;BME280;6052;53.246;10.368;2023-03-16T07:53:30;101594.00;;;2.78;100.00
11985;BME280;6052;53.246;10.368;2023-03-16T07:56:00;101602.63;;;2.88;100.00
11985;BME280;6052;53.246;10.368;2023-03-16T07:58:30;101604.13;;;2.90;100.00
11985;BME280;6052;53.246;10.368;2023-03-16T08:01:02;101593.69;;;2.97;100.00
11985;BME280;6052;53.246;10.368;2023-03-16T08:03:31;101594.34;;;3.07;100.00
11985;BME280;6052;53.246;10.368;2023-03-16T08:06:00;101592.34;;;3.25;100.00
11985;BME280;6052;53.246;10.368;2023-03-16T08:08:30;101597.47;;;3.34;100.00
11985;BME280;6052;53.246;10.368;2023-03-16T08:10:59;101596.94;;;3.47;100.00
11985;BME280;6052;53.246;10.368;2023-03-16T08:13:29;101597.44;;;3.50;100.00
11985;BME280;6052;53.246;10.368;2023-03-16T08:16:05;101599.56;;;3.63;100.00
11985;BME280;6052;53.246;10.368;2023-03-16T08:18:36;101588.41;;;3.75;100.00
11985;BME280;6052;53.246;10.368;2023-03-16T08:21:05;101597.19;;;3.76;100.00
11985;BME280;6052;53.246;10.368;2023-03-16T08:23:34;101594.34;;;3.85;100.00
11985;BME280;6052;53.246;10.368;2023-03-16T08:26:04;101595.50;;;3.91;100.00
11985;BME280;6052;53.246;10.368;2023-03-16T08:28:35;101597.66;;;3.95;100.00
11985;BME280;6052;53.246;10.368;2023-03-16T08:31:07;101605.09;;;4.00;100.00
11985;BME280;6052;53.246;10.368;2023-03-16T08:33:38;101602.91;;;4.03;100.00
11985;BME280;6052;53.246;10.368;2023-03-16T08:36:08;101603.34;;;4.15;100.00
11985;BME280;6052;53.246;10.368;2023-03-16T08:38:38;101602.78;;;4.27;100.00
11985;BME280;6052;53.246;10.368;2023-03-16T08:41:10;101593.97;;;4.35;100.00
11985;BME280;6052;53.246;10.368;2023-03-16T08:43:42;101603.19;;;4.47;100.00
11985;BME280;6052;53.246;10.368;2023-03-16T08:46:14;101605.88;;;4.47;100.00
11985;BME280;6052;53.246;10.368;2023-03-16T08:48:44;101601.97;;;4.57;100.00
11985;BME280;6052;53.246;10.368;2023-03-16T08:51:13;101598.28;;;4.58;100.00
11985;BME280;6052;53.246;10.368;2023-03-16T08:53:43;101604.09;;;4.62;100.00
11985;BME280;6052;53.246;10.368;2023-03-16T08:56:13;101601.75;;;4.67;100.00
11985;BME280;6052;53.246;10.368;2023-03-16T08:58:42;101600.31;;;4.79;100.00
11985;BME280;6052;53.246;10.368;2023-03-16T09:01:15;101605.59;;;4.87;100.00
11985;BME280;6052;53.246;10.368;2023-03-16T09:03:45;101603.34;;;4.98;100.00
11985;BME280;6052;53.246;10.368;2023-03-16T09:06:16;101593.91;;;5.10;100.00
11985;BME280;6052;53.246;10.368;2023-03-16T09:08:47;101587.28;;;5.06;100.00
11985;BME280;6052;53.246;10.368;2023-03-16T09:11:18;101587.22;;;5.14;100.00
11985;BME280;6052;53.246;10.368;2023-03-16T09:13:48;101582.84;;;5.21;100.00
11985;BME280;6052;53.246;10.368;2023-03-16T09:16:21;101578.34;;;5.36;100.00
11985;BME280;6052;53.246;10.368;2023-03-16T09:18:51;101582.06;;;5.50;100.00
11985;BME280;6052;53.246;10.368;2023-03-16T09:21:21;101577.47;;;5.58;100.00
11985;BME280;6052;53.246;10.368;2023-03-16T09:23:51;101575.28;;;5.62;100.00
11985;BME280;6052;53.246;10.368;2023-03-16T09:26:21;101576.22;;;5.69;100.00
11985;BME280;6052;53.246;10.368;2023-03-16T09:28:51;101567.22;;;5.84;100.00
11985;BME280;6052;53.246;10.368;2023-03-16T09:31:23;101570.81;;;5.91;100.00
11985;BME280;6052;53.246;10.368;2023-03-16T09:33:52;101560.59;;;5.95;100.00
11985;BME280;6052;53.246;10.368;2023-03-16T09:36:21;101558.84;;;6.02;100.00
11985;BME280;6052;53.246;10.368;2023-03-16T09:38:51;101554.13;;;6.18;100.00
11985;BME280;6052;53.246;10.368;2023-03-16T09:41:38;101556.75;;;6.33;100.00
11985;BME280;6052;53.246;10.368;2023-03-16T09:44:20;101545.97;;;6.41;99.63
11985;BME280;6052;53.246;10.368;2023-03-16T09:46:56;101549.81;;;6.53;97.34
11985;BME280;6052;53.246;10.368;2023-03-16T09:49:31;101546.44;;;6.65;95.32
11985;BME280;6052;53.246;10.368;2023-03-16T09:52:08;101552.09;;;6.77;92.38
11985;BME280;6052;53.246;10.368;2023-03-16T09:54:44;101539.31;;;6.93;89.49
11985;BME280;6052;53.246;10.368;2023-03-16T09:57:23;101530.81;;;6.83;86.14
11985;BME280;6052;53.246;10.368;2023-03-16T09:59:54;101529.88;;;6.97;85.07
11985;BME280;6052;53.246;10.368;2023-03-16T10:02:49;101534.00;;;7.00;83.57
11985;BME280;6052;53.246;10.368;2023-03-16T10:05:25;101528.88;;;6.98;78.66
11985;BME280;6052;53.246;10.368;2023-03-16T10:08:04;101534.91;;;7.07;80.39
11985;BME280;6052;53.246;10.368;2023-03-16T10:10:44;101526.78;;;7.21;77.97
11985;BME280;6052;53.246;10.368;2023-03-16T10:13:26;101524.72;;;7.17;77.19
11985;BME280;6052;53.246;10.368;2023-03-16T10:15:58;101531.56;;;7.26;76.75
11985;BME280;6052;53.246;10.368;2023-03-16T10:18:35;101528.09;;;7.32;74.90
11985;BME280;6052;53.246;10.368;2023-03-16T10:21:11;101522.81;;;7.38;78.60
11985;BME280;6052;53.246;10.368;2023-03-16T10:23:43;101515.06;;;7.50;75.27
11985;BME280;6052;53.246;10.368;2023-03-16T10:26:17;101518.78;;;7.49;75.17
11985;BME280;6052;53.246;10.368;2023-03-16T10:28:48;101526.75;;;7.42;71.93
11985;BME280;6052;53.246;10.368;2023-03-16T10:31:20;101521.34;;;7.70;72.39
11985;BME280;6052;53.246;10.368;2023-03-16T10:33:57;101518.59;;;7.57;71.93
11985;BME280;6052;53.246;10.368;2023-03-16T10:36:38;101526.94;;;7.75;73.59
11985;BME280;6052;53.246;10.368;2023-03-16T10:39:10;101514.41;;;7.82;70.97
11985;BME280;6052;53.246;10.368;2023-03-16T10:41:41;101527.84;;;7.95;71.36
11985;BME280;6052;53.246;10.368;2023-03-16T10:44:13;101518.56;;;7.91;70.21
11985;BME280;6052;53.246;10.368;2023-03-16T10:46:44;101517.50;;;7.79;68.95
11985;BME280;6052;53.246;10.368;2023-03-16T10:49:24;101527.56;;;7.83;67.81
11985;BME280;6052;53.246;10.368;2023-03-16T10:51:56;101518.56;;;7.91;67.33
11985;BME280;6052;53.246;10.368;2023-03-16T10:54:30;101517.38;;;8.00;66.33
11985;BME280;6052;53.246;10.368;2023-03-16T10:57:12;101516.59;;;8.12;66.28
11985;BME280;6052;53.246;10.368;2023-03-16T10:59:47;101506.47;;;8.01;65.19
11985;BME280;6052;53.246;10.368;2023-03-16T11:02:18;101513.88;;;8.06;67.02
11985;BME280;6052;53.246;10.368;2023-03-16T11:04:51;101498.75;;;8.26;65.50
11985;BME280;6052;53.246;10.368;2023-03-16T11:07:23;101487.19;;;8.19;65.06
11985;BME280;6052;53.246;10.368;2023-03-16T11:09:54;101496.03;;;8.13;65.02
11985;BME280;6052;53.246;10.368;2023-03-16T11:12:26;101485.41;;;8.32;65.57
11985;BME280;6052;53.246;10.368;2023-03-16T11:15:00;101486.66;;;8.36;65.27
11985;BME280;6052;53.246;10.368;2023-03-16T11:17:42;101477.78;;;8.36;64.71
11985;BME280;6052;53.246;10.368;2023-03-16T11:20:18;101480.91;;;8.33;63.78
11985;BME280;6052;53.246;10.368;2023-03-16T11:22:50;101475.78;;;8.44;63.01
11985;BME280;6052;53.246;10.368;2023-03-16T11:25:25;101476.19;;;8.54;64.35
11985;BME280;6052;53.246;10.368;2023-03-16T11:28:02;101465.69;;;8.53;62.58
11985;BME280;6052;53.246;10.368;2023-03-16T11:30:40;101458.47;;;8.60;63.43
11985;BME280;6052;53.246;10.368;2023-03-16T11:33:13;101465.06;;;8.57;63.98
11985;BME280;6052;53.246;10.368;2023-03-16T11:35:50;101454.78;;;8.67;65.33
11985;BME280;6052;53.246;10.368;2023-03-16T11:38:31;101450.03;;;8.56;62.24
11985;BME280;6052;53.246;10.368;2023-03-16T11:41:03;101443.47;;;8.59;63.50
11985;BME280;6052;53.246;10.368;2023-03-16T11:43:48;101442.84;;;8.70;64.35
11985;BME280;6052;53.246;10.368;2023-03-16T11:46:21;101452.09;;;8.67;60.64
11985;BME280;6052;53.246;10.368;2023-03-16T11:49:18;101448.00;;;8.78;63.10
11985;BME280;6052;53.246;10.368;2023-03-16T11:51:59;101441.59;;;8.79;63.22
11985;BME280;6052;53.246;10.368;2023-03-16T11:54:41;101447.56;;;8.87;63.67
11985;BME280;6052;53.246;10.368;2023-03-16T11:57:26;101444.69;;;8.82;63.08
11985;BME280;6052;53.246;10.368;2023-03-16T12:00:10;101427.81;;;8.82;60.14
11985;BME280;6052;53.246;10.368;2023-03-16T12:02:47;101426.78;;;8.89;62.48
11985;BME280;6052;53.246;10.368;2023-03-16T12:05:33;101425.75;;;8.90;60.70
11985;BME280;6052;53.246;10.368;2023-03-16T12:08:21;101418.94;;;8.94;62.55
11985;BME280;6052;53.246;10.368;2023-03-16T12:10:55;101419.56;;;8.90;60.48
11985;BME280;6052;53.246;10.368;2023-03-16T12:13:38;101410.91;;;8.94;59.10
11985;BME280;6052;53.246;10.368;2023-03-16T12:16:15;101398.97;;;8.90;59.56
11985;BME280;6052;53.246;10.368;2023-03-16T12:18:51;101388.25;;;8.97;60.85
11985;BME280;6052;53.246;10.368;2023-03-16T12:21:27;101384.94;;;8.95;58.43
11985;BME280;6052;53.246;10.368;2023-03-16T12:24:03;101399.75;;;9.04;59.26
11985;BME280;6052;53.246;10.368;2023-03-16T12:26:35;101390.72;;;8.98;58.23
11985;BME280;6052;53.246;10.368;2023-03-16T12:29:13;101383.94;;;8.96;56.38
11985;BME280;6052;53.246;10.368;2023-03-16T12:31:52;101387.19;;;9.04;57.79
11985;BME280;6052;53.246;10.368;2023-03-16T12:34:26;101384.31;;;9.12;58.36
11985;BME280;6052;53.246;10.368;2023-03-16T12:37:18;101380.78;;;9.12;58.05
11985;BME280;6052;53.246;10.368;2023-03-16T12:40:01;101366.59;;;9.05;57.02
11985;BME280;6052;53.246;10.368;2023-03-16T12:42:42;101361.03;;;9.00;56.44
11985;BME280;6052;53.246;10.368;2023-03-16T12:45:16;101361.22;;;9.11;58.35
11985;BME280;6052;53.246;10.368;2023-03-16T12:47:57;101361.22;;;9.05;57.51
11985;BME280;6052;53.246;10.368;2023-03-16T12:50:29;101354.03;;;9.05;57.43
11985;BME280;6052;53.246;10.368;2023-03-16T12:52:58;101355.63;;;9.19;59.30
11985;BME280;6052;53.246;10.368;2023-03-16T12:55:43;101336.72;;;9.08;57.65
11985;BME280;6052;53.246;10.368;2023-03-16T12:58:16;101332.19;;;9.08;56.53
11985;BME280;6052;53.246;10.368;2023-03-16T13:00:54;101345.13;;;9.18;57.13
11985;BME280;6052;53.246;10.368;2023-03-16T13:03:26;101331.13;;;9.22;59.03
11985;BME280;6052;53.246;10.368;2023-03-16T13:05:58;101329.63;;;9.26;57.93
11985;BME280;6052;53.246;10.368;2023-03-16T13:08:40;101322.84;;;9.24;57.97
11985;BME280;6052;53.246;10.368;2023-03-16T13:11:12;101320.63;;;9.21;59.11
11985;BME280;6052;53.246;10.368;2023-03-16T13:13:49;101327.59;;;9.22;58.26
11985;BME280;6052;53.246;10.368;2023-03-16T13:16:24;101332.97;;;9.15;58.63
11985;BME280;6052;53.246;10.368;2023-03-16T13:18:55;101322.28;;;9.09;56.87
11985;BME280;6052;53.246;10.368;2023-03-16T13:21:35;101311.38;;;9.10;57.94
11985;BME280;6052;53.246;10.368;2023-03-16T13:24:13;101329.34;;;9.03;58.05